sensor_id;sensor_type;location;lat;lon;timestamp;P1;durP1;ratioP1;P2;durP2;ratioP2
26774;SDS011;14362;51.902;7.626;2023-08-31T00:03:00;10.80;;;6.50;;
26774;SDS011;14362;51.902;7.626;2023-08-31T00:07:01;10.32;;;7.35;;
26774;SDS011;14362;51.902;7.626;2023-08-31T00:11:04;10.45;;;6.82;;
26774;SDS011;14362;51.902;7.626;2023-08-31T00:15:06;11.43;;;6.88;;
26774;SDS011;14362;51.902;7.626;2023-08-31T00:19:09;8.00;;;5.28;;
26774;SDS011;14362;51.902;7.626;2023-08-31T00:23:10;14.20;;;7.82;;
26774;SDS011;14362;51.902;7.626;2023-08-31T00:27:13;11.98;;;7.00;;
26774;SDS011;14362;51.902;7.626;2023-08-31T00:31:15;10.45;;;7.28;;
26774;SDS011;14362;51.902;7.626;2023-08-31T00:35:16;10.48;;;7.45;;
26774;SDS011;14362;51.902;7.626;2023-08-31T00:39:18;11.93;;;7.70;;
26774;SDS011;14362;51.902;7.626;2023-08-31T00:43:22;10.35;;;7.30;;
26774;SDS011;14362;51.902;7.626;2023-08-31T00:47:24;12.93;;;5.97;;
26774;SDS011;14362;51.902;7.626;2023-08-31T00:51:25;12.23;;;7.40;;
26774;SDS011;14362;51.902;7.626;2023-08-31T00:55:27;14.73;;;6.55;;
26774;SDS011;14362;51.902;7.626;2023-08-31T00:59:30;11.73;;;7.65;;
26774;SDS011;14362;51.902;7.626;2023-08-31T01:03:33;12.10;;;7.10;;
26774;SDS011;14362;51.902;7.626;2023-08-31T01:07:43;8.98;;;5.88;;
26774;SDS011;14362;51.902;7.626;2023-08-31T01:11:55;8.32;;;7.05;;
26774;SDS011;14362;51.902;7.626;2023-08-31T01:16:03;11.23;;;7.75;;
26774;SDS011;14362;51.902;7.626;2023-08-31T01:20:08;10.48;;;7.60;;
26774;SDS011;14362;51.902;7.626;2023-08-31T01:24:13;9.53;;;6.17;;
26774;SDS011;14362;51.902;7.626;2023-08-31T01:28:15;11.73;;;7.50;;
26774;SDS011;14362;51.902;7.626;2023-08-31T01:32:17;9.73;;;7.90;;
26774;SDS011;14362;51.902;7.626;2023-08-31T01:36:20;11.05;;;8.10;;
26774;SDS011;14362;51.902;7.626;2023-08-31T01:40:27;10.68;;;8.00;;
26774;SDS011;14362;51.902;7.626;2023-08-31T01:44:35;10.52;;;7.95;;
26774;SDS011;14362;51.902;7.626;2023-08-31T01:48:38;10.57;;;6.75;;
26774;SDS011;14362;51.902;7.626;2023-08-31T01:52:40;8.55;;;6.15;;
26774;SDS011;14362;51.902;7.626;2023-08-31T01:56:42;9.23;;;6.43;;
26774;SDS011;14362;51.902;7.626;2023-08-31T02:00:44;8.98;;;6.20;;
26774;SDS011;14362;51.902;7.626;2023-08-31T02:04:45;8.80;;;6.03;;
26774;SDS011;14362;51.902;7.626;2023-08-31T02:08:47;9.77;;;5.03;;
26774;SDS011;14362;51.902;7.626;2023-08-31T02:12:50;10.95;;;5.75;;
26774;SDS011;14362;51.902;7.626;2023-08-31T02:16:51;7.05;;;5.18;;
26774;SDS011;14362;51.902;7.626;2023-08-31T02:20:52;6.60;;;5.72;;
26774;SDS011;14362;51.902;7.626;2023-08-31T02:24:54;9.85;;;6.00;;
26774;SDS011;14362;51.902;7.626;2023-08-31T02:28:57;6.80;;;5.85;;
26774;SDS011;14362;51.902;7.626;2023-08-31T02:32:58;8.65;;;6.95;;
26774;SDS011;14362;51.902;7.626;2023-08-31T02:37:00;10.32;;;6.40;;
26774;SDS011;14362;51.902;7.626;2023-08-31T02:41:01;8.20;;;6.53;;
26774;SDS011;14362;51.902;7.626;2023-08-31T02:45:04;8.55;;;6.30;;
26774;SDS011;14362;51.902;7.626;2023-08-31T02:49:07;7.38;;;5.00;;
26774;SDS011;14362;51.902;7.626;2023-08-31T02:53:08;10.73;;;6.60;;
26774;SDS011;14362;51.902;7.626;2023-08-31T02:57:10;8.18;;;6.75;;
26774;SDS011;14362;51.902;7.626;2023-08-31T03:01:13;8.25;;;7.40;;
26774;SDS011;14362;51.902;7.626;2023-08-31T03:05:15;12.43;;;7.15;;
26774;SDS011;14362;51.902;7.626;2023-08-31T03:09:16;11.35;;;7.90;;
26774;SDS011;14362;51.902;7.626;2023-08-31T03:13:19;11.52;;;6.22;;
26774;SDS011;14362;51.902;7.626;2023-08-31T03:17:22;9.93;;;7.07;;
26774;SDS011;14362;51.902;7.626;2023-08-31T03:21:24;13.00;;;8.50;;
26774;SDS011;14362;51.902;7.626;2023-08-31T03:25:26;13.23;;;9.63;;
26774;SDS011;14362;51.902;7.626;2023-08-31T03:29:28;9.98;;;8.70;;
26774;SDS011;14362;51.902;7.626;2023-08-31T03:33:33;12.32;;;9.20;;
26774;SDS011;14362;51.902;7.626;2023-08-31T03:37:34;14.57;;;10.30;;
26774;SDS011;14362;51.902;7.626;2023-08-31T03:41:36;10.50;;;7.95;;
26774;SDS011;14362;51.902;7.626;2023-08-31T03:45:37;11.30;;;7.72;;
26774;SDS011;14362;51.902;7.626;2023-08-31T03:49:40;9.82;;;8.52;;
26774;SDS011;14362;51.902;7.626;2023-08-31T03:53:42;11.75;;;8.20;;
26774;SDS011;14362;51.902;7.626;2023-08-31T03:57:44;12.00;;;8.82;;
26774;SDS011;14362;51.902;7.626;2023-08-31T04:01:45;12.98;;;9.77;;
26774;SDS011;14362;51.902;7.626;2023-08-31T04:05:48;10.38;;;7.47;;
26774;SDS011;14362;51.902;7.626;2023-08-31T04:09:49;15.25;;;8.55;;
26774;SDS011;14362;51.902;7.626;2023-08-31T04:13:51;14.00;;;9.25;;
26774;SDS011;14362;51.902;7.626;2023-08-31T04:17:53;12.75;;;9.45;;
26774;SDS011;14362;51.902;7.626;2023-08-31T04:21:56;13.38;;;10.48;;
26774;SDS011;14362;51.902;7.626;2023-08-31T04:25:57;14.90;;;10.40;;
26774;SDS011;14362;51.902;7.626;2023-08-31T04:30:00;15.07;;;10.13;;
26774;SDS011;14362;51.902;7.626;2023-08-31T04:34:02;13.95;;;11.32;;
26774;SDS011;14362;51.902;7.626;2023-08-31T04:38:05;21.23;;;14.50;;
26774;SDS011;14362;51.902;7.626;2023-08-31T04:42:07;15.30;;;11.35;;
26774;SDS011;14362;51.902;7.626;2023-08-31T04:46:08;22.45;;;15.05;;
26774;SDS011;14362;51.902;7.626;2023-08-31T04:50:10;22.05;;;15.30;;
26774;SDS011;14362;51.902;7.626;2023-08-31T04:54:13;19.65;;;13.80;;
26774;SDS011;14362;51.902;7.626;2023-08-31T04:58:15;22.92;;;15.07;;
26774;SDS011;14362;51.902;7.626;2023-08-31T05:02:16;22.52;;;16.20;;
26774;SDS011;14362;51.902;7.626;2023-08-31T05:06:19;28.02;;;16.02;;
26774;SDS011;14362;51.902;7.626;2023-08-31T05:10:21;21.50;;;16.00;;
26774;SDS011;14362;51.902;7.626;2023-08-31T05:14:23;20.23;;;14.75;;
26774;SDS011;14362;51.902;7.626;2023-08-31T05:18:25;19.95;;;14.95;;
26774;SDS011;14362;51.902;7.626;2023-08-31T05:22:26;25.00;;;17.10;;
26774;SDS011;14362;51.902;7.626;2023-08-31T05:26:29;23.30;;;16.08;;
26774;SDS011;14362;51.902;7.626;2023-08-31T05:30:30;26.05;;;22.02;;
26774;SDS011;14362;51.902;7.626;2023-08-31T05:34:34;27.95;;;16.58;;
26774;SDS011;14362;51.902;7.626;2023-08-31T05:38:39;22.70;;;16.60;;
26774;SDS011;14362;51.902;7.626;2023-08-31T05:42:41;23.80;;;21.48;;
26774;SDS011;14362;51.902;7.626;2023-08-31T05:46:43;25.13;;;22.60;;
26774;SDS011;14362;51.902;7.626;2023-08-31T05:50:44;23.13;;;16.80;;
26774;SDS011;14362;51.902;7.626;2023-08-31T05:54:46;27.25;;;23.92;;
26774;SDS011;14362;51.902;7.626;2023-08-31T05:58:49;25.70;;;18.70;;
26774;SDS011;14362;51.902;7.626;2023-08-31T06:02:50;28.35;;;25.42;;
26774;SDS011;14362;51.902;7.626;2023-08-31T06:06:52;26.88;;;24.05;;
26774;SDS011;14362;51.902;7.626;2023-08-31T06:10:54;29.00;;;18.67;;
26774;SDS011;14362;51.902;7.626;2023-08-31T06:14:56;26.60;;;22.30;;
26774;SDS011;14362;51.902;7.626;2023-08-31T06:18:58;33.83;;;23.85;;
26774;SDS011;14362;51.902;7.626;2023-08-31T06:22:59;35.65;;;32.05;;
26774;SDS011;14362;51.902;7.626;2023-08-31T06:27:01;34.80;;;26.02;;
26774;SDS011;14362;51.902;7.626;2023-08-31T06:31:04;36.83;;;32.95;;
26774;SDS011;14362;51.902;7.626;2023-08-31T06:35:06;39.03;;;30.23;;
26774;SDS011;14362;51.902;7.626;2023-08-31T06:39:07;40.25;;;35.85;;
26774;SDS011;14362;51.902;7.626;2023-08-31T06:43:09;39.42;;;35.28;;
26774;SDS011;14362;51.902;7.626;2023-08-31T06:47:11;40.25;;;27.52;;
26774;SDS011;14362;51.902;7.626;2023-08-31T06:51:13;39.45;;;35.33;;
26774;SDS011;14362;51.902;7.626;2023-08-31T06:55:15;42.00;;;37.42;;
26774;SDS011;14362;51.902;7.626;2023-08-31T06:59:17;40.15;;;35.97;;
26774;SDS011;14362;51.902;7.626;2023-08-31T07:03:20;41.53;;;37.20;;
26774;SDS011;14362;51.902;7.626;2023-08-31T07:07:21;43.13;;;38.10;;
26774;SDS011;14362;51.902;7.626;2023-08-31T07:11:22;41.28;;;36.90;;
26774;SDS011;14362;51.902;7.626;2023-08-31T07:15:24;42.67;;;38.28;;
26774;SDS011;14362;51.902;7.626;2023-08-31T07:19:27;41.45;;;37.05;;
26774;SDS011;14362;51.902;7.626;2023-08-31T07:23:28;44.55;;;30.73;;
26774;SDS011;14362;51.902;7.626;2023-08-31T07:27:30;36.60;;;31.02;;
26774;SDS011;14362;51.902;7.626;2023-08-31T07:31:31;36.22;;;32.63;;
26774;SDS011;14362;51.902;7.626;2023-08-31T07:35:34;34.97;;;31.67;;
26774;SDS011;14362;51.902;7.626;2023-08-31T07:39:36;33.30;;;30.13;;
26774;SDS011;14362;51.902;7.626;2023-08-31T07:43:37;33.63;;;30.02;;
26774;SDS011;14362;51.902;7.626;2023-08-31T07:47:39;30.80;;;27.80;;
26774;SDS011;14362;51.902;7.626;2023-08-31T07:51:41;31.90;;;28.77;;
26774;SDS011;14362;51.902;7.626;2023-08-31T07:55:50;31.63;;;28.08;;
26774;SDS011;14362;51.902;7.626;2023-08-31T07:59:52;27.67;;;24.95;;
26774;SDS011;14362;51.902;7.626;2023-08-31T08:03:54;27.92;;;25.02;;
26774;SDS011;14362;51.902;7.626;2023-08-31T08:07:57;22.40;;;20.08;;
26774;SDS011;14362;51.902;7.626;2023-08-31T08:11:58;18.75;;;16.85;;
26774;SDS011;14362;51.902;7.626;2023-08-31T08:16:00;17.80;;;16.10;;
26774;SDS011;14362;51.902;7.626;2023-08-31T08:20:01;14.10;;;12.85;;
26774;SDS011;14362;51.902;7.626;2023-08-31T08:24:05;13.45;;;12.20;;
26774;SDS011;14362;51.902;7.626;2023-08-31T08:28:07;13.10;;;11.70;;
26774;SDS011;14362;51.902;7.626;2023-08-31T08:32:08;10.98;;;9.88;;
26774;SDS011;14362;51.902;7.626;2023-08-31T08:36:10;12.23;;;8.90;;
26774;SDS011;14362;51.902;7.626;2023-08-31T08:40:12;8.55;;;7.65;;
26774;SDS011;14362;51.902;7.626;2023-08-31T08:44:14;11.60;;;7.50;;
26774;SDS011;14362;51.902;7.626;2023-08-31T08:48:18;7.72;;;7.03;;
26774;SDS011;14362;51.902;7.626;2023-08-31T08:52:21;7.60;;;6.90;;
26774;SDS011;14362;51.902;7.626;2023-08-31T08:56:24;6.43;;;5.80;;
26774;SDS011;14362;51.902;7.626;2023-08-31T09:00:26;9.32;;;6.00;;
26774;SDS011;14362;51.902;7.626;2023-08-31T09:04:28;6.78;;;6.13;;
26774;SDS011;14362;51.902;7.626;2023-08-31T09:13:12;8.68;;;5.35;;
26774;SDS011;14362;51.902;7.626;2023-08-31T09:22:12;4.95;;;4.38;;
26774;SDS011;14362;51.902;7.626;2023-08-31T09:26:13;6.30;;;4.63;;
26774;SDS011;14362;51.902;7.626;2023-08-31T09:30:16;4.97;;;3.88;;
26774;SDS011;14362;51.902;7.626;2023-08-31T09:34:18;5.18;;;3.17;;
26774;SDS011;14362;51.902;7.626;2023-08-31T09:38:19;5.32;;;3.17;;
26774;SDS011;14362;51.902;7.626;2023-08-31T09:42:21;6.32;;;3.17;;
26774;SDS011;14362;51.902;7.626;2023-08-31T09:46:24;5.63;;;3.00;;
26774;SDS011;14362;51.902;7.626;2023-08-31T09:50:26;4.35;;;2.83;;
26774;SDS011;14362;51.902;7.626;2023-08-31T09:54:29;5.55;;;3.40;;
26774;SDS011;14362;51.902;7.626;2023-08-31T09:58:31;6.63;;;2.70;;
26774;SDS011;14362;51.902;7.626;2023-08-31T10:02:35;4.65;;;2.78;;
26774;SDS011;14362;51.902;7.626;2023-08-31T10:06:37;6.10;;;2.63;;
26774;SDS011;14362;51.902;7.626;2023-08-31T10:10:40;2.65;;;2.10;;
26774;SDS011;14362;51.902;7.626;2023-08-31T10:14:42;3.47;;;2.28;;
26774;SDS011;14362;51.902;7.626;2023-08-31T10:18:47;3.83;;;2.13;;
26774;SDS011;14362;51.902;7.626;2023-08-31T10:22:49;4.30;;;2.28;;
26774;SDS011;14362;51.902;7.626;2023-08-31T10:26:51;5.55;;;2.10;;
26774;SDS011;14362;51.902;7.626;2023-08-31T10:31:02;5.82;;;2.17;;
26774;SDS011;14362;51.902;7.626;2023-08-31T10:35:06;3.17;;;2.10;;
26774;SDS011;14362;51.902;7.626;2023-08-31T10:43:16;4.35;;;1.83;;
26774;SDS011;14362;51.902;7.626;2023-08-31T10:47:17;4.03;;;1.58;;
26774;SDS011;14362;51.902;7.626;2023-08-31T10:51:22;3.65;;;1.17;;
26774;SDS011;14362;51.902;7.626;2023-08-31T10:55:25;4.55;;;1.33;;
26774;SDS011;14362;51.902;7.626;2023-08-31T10:59:40;5.13;;;1.23;;
26774;SDS011;14362;51.902;7.626;2023-08-31T11:08:02;4.22;;;1.40;;
26774;SDS011;14362;51.902;7.626;2023-08-31T11:12:04;4.85;;;1.58;;
26774;SDS011;14362;51.902;7.626;2023-08-31T11:16:06;5.03;;;2.10;;
26774;SDS011;14362;51.902;7.626;2023-08-31T11:20:08;4.13;;;1.55;;
26774;SDS011;14362;51.902;7.626;2023-08-31T11:24:11;4.05;;;2.00;;
26774;SDS011;14362;51.902;7.626;2023-08-31T11:28:14;4.15;;;1.70;;
26774;SDS011;14362;51.902;7.626;2023-08-31T11:32:16;4.05;;;2.40;;
26774;SDS011;14362;51.902;7.626;2023-08-31T11:36:17;2.45;;;1.70;;
26774;SDS011;14362;51.902;7.626;2023-08-31T11:40:21;3.75;;;1.80;;
26774;SDS011;14362;51.902;7.626;2023-08-31T11:44:22;4.88;;;1.73;;
26774;SDS011;14362;51.902;7.626;2023-08-31T11:48:24;2.85;;;1.75;;
26774;SDS011;14362;51.902;7.626;2023-08-31T11:52:26;5.03;;;1.88;;
26774;SDS011;14362;51.902;7.626;2023-08-31T11:56:29;3.28;;;1.75;;
26774;SDS011;14362;51.902;7.626;2023-08-31T12:00:39;4.38;;;1.80;;
26774;SDS011;14362;51.902;7.626;2023-08-31T12:04:44;2.63;;;2.25;;
26774;SDS011;14362;51.902;7.626;2023-08-31T12:08:46;3.05;;;2.10;;
26774;SDS011;14362;51.902;7.626;2023-08-31T12:12:49;4.47;;;2.30;;
26774;SDS011;14362;51.902;7.626;2023-08-31T12:21:01;3.97;;;2.40;;
26774;SDS011;14362;51.902;7.626;2023-08-31T12:25:04;3.65;;;2.47;;
26774;SDS011;14362;51.902;7.626;2023-08-31T12:29:07;4.70;;;3.10;;
26774;SDS011;14362;51.902;7.626;2023-08-31T12:33:09;3.85;;;2.85;;
26774;SDS011;14362;51.902;7.626;2023-08-31T12:37:11;7.95;;;2.85;;
26774;SDS011;14362;51.902;7.626;2023-08-31T12:41:12;4.18;;;2.92;;
26774;SDS011;14362;51.902;7.626;2023-08-31T12:45:15;5.25;;;3.00;;
26774;SDS011;14362;51.902;7.626;2023-08-31T12:49:17;7.85;;;3.45;;
26774;SDS011;14362;51.902;7.626;2023-08-31T12:53:20;7.65;;;3.25;;
26774;SDS011;14362;51.902;7.626;2023-08-31T12:57:23;6.45;;;4.00;;
26774;SDS011;14362;51.902;7.626;2023-08-31T13:01:25;8.52;;;5.13;;
26774;SDS011;14362;51.902;7.626;2023-08-31T13:05:27;6.93;;;4.93;;
26774;SDS011;14362;51.902;7.626;2023-08-31T13:09:29;7.25;;;5.63;;
26774;SDS011;14362;51.902;7.626;2023-08-31T13:13:31;6.55;;;5.85;;
26774;SDS011;14362;51.902;7.626;2023-08-31T13:17:34;6.95;;;6.28;;
26774;SDS011;14362;51.902;7.626;2023-08-31T13:21:35;9.02;;;6.13;;
26774;SDS011;14362;51.902;7.626;2023-08-31T13:25:37;8.80;;;6.53;;
26774;SDS011;14362;51.902;7.626;2023-08-31T13:29:39;6.35;;;5.75;;
26774;SDS011;14362;51.902;7.626;2023-08-31T13:33:42;6.88;;;5.40;;
26774;SDS011;14362;51.902;7.626;2023-08-31T13:37:43;11.45;;;6.20;;
26774;SDS011;14362;51.902;7.626;2023-08-31T13:41:45;7.57;;;6.45;;
26774;SDS011;14362;51.902;7.626;2023-08-31T13:45:46;7.75;;;6.07;;
26774;SDS011;14362;51.902;7.626;2023-08-31T13:49:49;6.88;;;6.20;;
26774;SDS011;14362;51.902;7.626;2023-08-31T13:53:51;9.48;;;6.90;;
26774;SDS011;14362;51.902;7.626;2023-08-31T13:57:52;10.65;;;7.43;;
26774;SDS011;14362;51.902;7.626;2023-08-31T14:01:54;7.65;;;6.93;;
26774;SDS011;14362;51.902;7.626;2023-08-31T14:05:56;6.95;;;5.72;;
26774;SDS011;14362;51.902;7.626;2023-08-31T14:09:58;9.55;;;5.60;;
26774;SDS011;14362;51.902;7.626;2023-08-31T14:14:02;7.22;;;5.30;;
26774;SDS011;14362;51.902;7.626;2023-08-31T14:18:10;6.32;;;5.15;;
26774;SDS011;14362;51.902;7.626;2023-08-31T14:22:13;6.00;;;5.15;;
26774;SDS011;14362;51.902;7.626;2023-08-31T14:26:15;12.07;;;5.28;;
26774;SDS011;14362;51.902;7.626;2023-08-31T14:30:16;5.25;;;4.50;;
26774;SDS011;14362;51.902;7.626;2023-08-31T14:34:18;7.60;;;4.32;;
26774;SDS011;14362;51.902;7.626;2023-08-31T14:38:21;5.50;;;3.38;;
26774;SDS011;14362;51.902;7.626;2023-08-31T14:42:22;4.55;;;2.83;;
26774;SDS011;14362;51.902;7.626;2023-08-31T14:46:24;3.53;;;2.13;;
26774;SDS011;14362;51.902;7.626;2023-08-31T14:50:25;2.00;;;1.60;;
26774;SDS011;14362;51.902;7.626;2023-08-31T14:54:28;2.53;;;1.90;;
26774;SDS011;14362;51.902;7.626;2023-08-31T14:58:30;3.33;;;1.50;;
26774;SDS011;14362;51.902;7.626;2023-08-31T15:02:31;2.72;;;1.65;;
26774;SDS011;14362;51.902;7.626;2023-08-31T15:06:33;2.30;;;1.80;;
26774;SDS011;14362;51.902;7.626;2023-08-31T15:10:37;5.18;;;2.05;;
26774;SDS011;14362;51.902;7.626;2023-08-31T15:18:40;1.95;;;1.70;;
26774;SDS011;14362;51.902;7.626;2023-08-31T15:22:41;3.05;;;1.45;;
26774;SDS011;14362;51.902;7.626;2023-08-31T15:26:44;1.67;;;1.50;;
26774;SDS011;14362;51.902;7.626;2023-08-31T15:30:45;2.60;;;1.45;;
26774;SDS011;14362;51.902;7.626;2023-08-31T15:34:47;2.50;;;1.25;;
26774;SDS011;14362;51.902;7.626;2023-08-31T15:38:48;5.10;;;1.80;;
26774;SDS011;14362;51.902;7.626;2023-08-31T15:42:51;2.80;;;1.58;;
26774;SDS011;14362;51.902;7.626;2023-08-31T15:46:53;6.05;;;1.70;;
26774;SDS011;14362;51.902;7.626;2023-08-31T15:50:54;2.65;;;1.60;;
26774;SDS011;14362;51.902;7.626;2023-08-31T15:54:56;5.32;;;1.83;;
26774;SDS011;14362;51.902;7.626;2023-08-31T15:59:00;4.53;;;1.80;;
26774;SDS011;14362;51.902;7.626;2023-08-31T16:03:02;3.97;;;1.88;;
26774;SDS011;14362;51.902;7.626;2023-08-31T16:07:03;2.47;;;1.60;;
26774;SDS011;14362;51.902;7.626;2023-08-31T16:11:05;5.22;;;1.73;;
26774;SDS011;14362;51.902;7.626;2023-08-31T16:15:09;4.40;;;1.70;;
26774;SDS011;14362;51.902;7.626;2023-08-31T16:19:11;3.78;;;1.90;;
26774;SDS011;14362;51.902;7.626;2023-08-31T16:23:12;3.25;;;1.70;;
26774;SDS011;14362;51.902;7.626;2023-08-31T16:27:14;4.18;;;2.35;;
26774;SDS011;14362;51.902;7.626;2023-08-31T16:31:17;2.65;;;1.42;;
26774;SDS011;14362;51.902;7.626;2023-08-31T16:35:18;4.25;;;1.63;;
26774;SDS011;14362;51.902;7.626;2023-08-31T16:39:19;2.92;;;1.80;;
26774;SDS011;14362;51.902;7.626;2023-08-31T16:43:21;5.65;;;1.75;;
26774;SDS011;14362;51.902;7.626;2023-08-31T16:47:25;2.97;;;1.90;;
26774;SDS011;14362;51.902;7.626;2023-08-31T16:51:26;7.72;;;2.00;;
26774;SDS011;14362;51.902;7.626;2023-08-31T16:55:28;4.43;;;1.83;;
26774;SDS011;14362;51.902;7.626;2023-08-31T16:59:30;4.70;;;1.90;;
26774;SDS011;14362;51.902;7.626;2023-08-31T17:03:33;2.63;;;2.08;;
26774;SDS011;14362;51.902;7.626;2023-08-31T17:07:35;4.07;;;1.98;;
26774;SDS011;14362;51.902;7.626;2023-08-31T17:11:36;3.70;;;1.80;;
26774;SDS011;14362;51.902;7.626;2023-08-31T17:15:38;2.33;;;1.73;;
26774;SDS011;14362;51.902;7.626;2023-08-31T17:19:40;3.75;;;1.92;;
26774;SDS011;14362;51.902;7.626;2023-08-31T17:23:42;3.53;;;1.80;;
26774;SDS011;14362;51.902;7.626;2023-08-31T17:27:44;2.10;;;1.80;;
26774;SDS011;14362;51.902;7.626;2023-08-31T17:31:45;3.92;;;2.00;;
26774;SDS011;14362;51.902;7.626;2023-08-31T17:35:48;2.92;;;1.88;;
26774;SDS011;14362;51.902;7.626;2023-08-31T17:39:50;4.00;;;1.83;;
26774;SDS011;14362;51.902;7.626;2023-08-31T17:43:52;3.80;;;2.20;;
26774;SDS011;14362;51.902;7.626;2023-08-31T17:47:53;2.88;;;1.85;;
26774;SDS011;14362;51.902;7.626;2023-08-31T17:51:56;2.92;;;2.10;;
26774;SDS011;14362;51.902;7.626;2023-08-31T17:55:58;3.85;;;2.10;;
26774;SDS011;14362;51.902;7.626;2023-08-31T17:59:59;6.25;;;2.75;;
26774;SDS011;14362;51.902;7.626;2023-08-31T18:04:05;4.55;;;2.60;;
26774;SDS011;14362;51.902;7.626;2023-08-31T18:08:08;5.05;;;2.53;;
26774;SDS011;14362;51.902;7.626;2023-08-31T18:12:09;4.00;;;2.35;;
26774;SDS011;14362;51.902;7.626;2023-08-31T18:16:11;3.72;;;2.80;;
26774;SDS011;14362;51.902;7.626;2023-08-31T18:20:12;4.15;;;2.55;;
26774;SDS011;14362;51.902;7.626;2023-08-31T18:24:15;4.05;;;2.70;;
26774;SDS011;14362;51.902;7.626;2023-08-31T18:28:17;5.53;;;2.63;;
26774;SDS011;14362;51.902;7.626;2023-08-31T18:32:18;3.75;;;2.78;;
26774;SDS011;14362;51.902;7.626;2023-08-31T18:36:19;4.05;;;3.05;;
26774;SDS011;14362;51.902;7.626;2023-08-31T18:40:22;4.55;;;3.22;;
26774;SDS011;14362;51.902;7.626;2023-08-31T18:44:24;4.22;;;3.10;;
26774;SDS011;14362;51.902;7.626;2023-08-31T18:48:25;6.75;;;2.67;;
26774;SDS011;14362;51.902;7.626;2023-08-31T18:52:29;8.00;;;3.30;;
26774;SDS011;14362;51.902;7.626;2023-08-31T18:56:32;4.75;;;3.30;;
26774;SDS011;14362;51.902;7.626;2023-08-31T19:00:34;3.05;;;2.75;;
26774;SDS011;14362;51.902;7.626;2023-08-31T19:04:37;5.47;;;3.60;;
26774;SDS011;14362;51.902;7.626;2023-08-31T19:08:38;4.10;;;3.10;;
26774;SDS011;14362;51.902;7.626;2023-08-31T19:12:41;4.72;;;3.42;;
26774;SDS011;14362;51.902;7.626;2023-08-31T19:20:45;4.18;;;3.67;;
26774;SDS011;14362;51.902;7.626;2023-08-31T19:24:47;5.32;;;3.55;;
26774;SDS011;14362;51.902;7.626;2023-08-31T19:28:50;5.20;;;3.70;;
26774;SDS011;14362;51.902;7.626;2023-08-31T19:32:51;7.15;;;4.15;;
26774;SDS011;14362;51.902;7.626;2023-08-31T19:36:52;4.32;;;3.92;;
26774;SDS011;14362;51.902;7.626;2023-08-31T19:40:54;5.40;;;4.07;;
26774;SDS011;14362;51.902;7.626;2023-08-31T19:44:58;6.70;;;4.28;;
26774;SDS011;14362;51.902;7.626;2023-08-31T19:49:00;6.30;;;4.50;;
26774;SDS011;14362;51.902;7.626;2023-08-31T19:53:03;5.97;;;5.22;;
26774;SDS011;14362;51.902;7.626;2023-08-31T19:57:05;5.78;;;4.40;;
26774;SDS011;14362;51.902;7.626;2023-08-31T20:01:07;6.13;;;4.53;;
26774;SDS011;14362;51.902;7.626;2023-08-31T20:05:09;5.40;;;4.63;;
26774;SDS011;14362;51.902;7.626;2023-08-31T20:09:11;6.78;;;4.95;;
26774;SDS011;14362;51.902;7.626;2023-08-31T20:13:14;5.80;;;5.20;;
26774;SDS011;14362;51.902;7.626;2023-08-31T20:17:17;6.18;;;5.38;;
26774;SDS011;14362;51.902;7.626;2023-08-31T20:21:19;6.65;;;5.85;;
26774;SDS011;14362;51.902;7.626;2023-08-31T20:25:20;10.02;;;7.55;;
26774;SDS011;14362;51.902;7.626;2023-08-31T20:29:21;10.25;;;7.60;;
26774;SDS011;14362;51.902;7.626;2023-08-31T20:33:26;8.45;;;7.60;;
26774;SDS011;14362;51.902;7.626;2023-08-31T20:37:28;10.13;;;7.95;;
26774;SDS011;14362;51.902;7.626;2023-08-31T20:41:29;8.73;;;7.90;;
26774;SDS011;14362;51.902;7.626;2023-08-31T20:45:31;11.73;;;8.30;;
26774;SDS011;14362;51.902;7.626;2023-08-31T20:49:35;10.25;;;8.30;;
26774;SDS011;14362;51.902;7.626;2023-08-31T20:53:37;9.65;;;8.48;;
26774;SDS011;14362;51.902;7.626;2023-08-31T20:57:38;10.75;;;9.43;;
26774;SDS011;14362;51.902;7.626;2023-08-31T21:01:40;11.10;;;10.07;;
26774;SDS011;14362;51.902;7.626;2023-08-31T21:05:42;11.55;;;10.18;;
26774;SDS011;14362;51.902;7.626;2023-08-31T21:09:44;10.75;;;9.77;;
26774;SDS011;14362;51.902;7.626;2023-08-31T21:13:46;10.85;;;9.75;;
26774;SDS011;14362;51.902;7.626;2023-08-31T21:17:48;11.77;;;10.50;;
26774;SDS011;14362;51.902;7.626;2023-08-31T21:21:51;12.15;;;10.63;;
26774;SDS011;14362;51.902;7.626;2023-08-31T21:25:52;11.85;;;10.68;;
26774;SDS011;14362;51.902;7.626;2023-08-31T21:29:54;12.60;;;11.40;;
26774;SDS011;14362;51.902;7.626;2023-08-31T21:33:55;13.57;;;11.93;;
26774;SDS011;14362;51.902;7.626;2023-08-31T21:37:58;13.98;;;12.68;;
26774;SDS011;14362;51.902;7.626;2023-08-31T21:42:00;13.75;;;12.38;;
26774;SDS011;14362;51.902;7.626;2023-08-31T21:46:01;14.82;;;13.43;;
26774;SDS011;14362;51.902;7.626;2023-08-31T21:50:04;14.57;;;13.13;;
26774;SDS011;14362;51.902;7.626;2023-08-31T21:54:07;14.95;;;13.55;;
26774;SDS011;14362;51.902;7.626;2023-08-31T21:58:09;14.70;;;13.30;;
26774;SDS011;14362;51.902;7.626;2023-08-31T22:02:10;15.55;;;14.05;;
26774;SDS011;14362;51.902;7.626;2023-08-31T22:06:12;16.67;;;14.98;;
26774;SDS011;14362;51.902;7.626;2023-08-31T22:10:15;18.05;;;16.40;;
26774;SDS011;14362;51.902;7.626;2023-08-31T22:14:17;17.50;;;15.85;;
26774;SDS011;14362;51.902;7.626;2023-08-31T22:18:19;17.92;;;16.30;;
26774;SDS011;14362;51.902;7.626;2023-08-31T22:22:21;19.02;;;17.08;;
26774;SDS011;14362;51.902;7.626;2023-08-31T22:26:24;17.83;;;16.20;;
26774;SDS011;14362;51.902;7.626;2023-08-31T22:30:25;18.55;;;16.63;;
26774;SDS011;14362;51.902;7.626;2023-08-31T22:34:27;18.77;;;16.98;;
26774;SDS011;14362;51.902;7.626;2023-08-31T22:38:29;18.95;;;16.63;;
26774;SDS011;14362;51.902;7.626;2023-08-31T22:42:32;19.63;;;17.95;;
26774;SDS011;14362;51.902;7.626;2023-08-31T22:46:33;19.15;;;17.13;;
26774;SDS011;14362;51.902;7.626;2023-08-31T22:50:36;19.70;;;17.63;;
26774;SDS011;14362;51.902;7.626;2023-08-31T22:54:38;20.08;;;18.23;;
26774;SDS011;14362;51.902;7.626;2023-08-31T22:58:41;20.60;;;18.67;;
26774;SDS011;14362;51.902;7.626;2023-08-31T23:02:43;20.92;;;19.02;;
26774;SDS011;14362;51.902;7.626;2023-08-31T23:06:44;20.80;;;18.83;;
26774;SDS011;14362;51.902;7.626;2023-08-31T23:10:46;21.45;;;19.10;;
26774;SDS011;14362;51.902;7.626;2023-08-31T23:14:49;21.55;;;19.40;;
26774;SDS011;14362;51.902;7.626;2023-08-31T23:18:50;21.35;;;19.25;;
26774;SDS011;14362;51.902;7.626;2023-08-31T23:22:52;21.92;;;19.90;;
26774;SDS011;14362;51.902;7.626;2023-08-31T23:26:54;21.05;;;19.15;;
26774;SDS011;14362;51.902;7.626;2023-08-31T23:45:39;22.30;;;20.00;;
26774;SDS011;14362;51.902;7.626;2023-08-31T23:49:40;22.65;;;20.45;;
26774;SDS011;14362;51.902;7.626;2023-08-31T23:53:42;21.92;;;19.70;;
26774;SDS011;14362;51.902;7.626;2023-08-31T23:57:43;22.08;;;19.88;;
